Terminal Aerodrome Forecast
Issued by NWS Sioux Falls, SD

Home | Current Version | Previous Version | Graphics & Text | Print | Product List | Glossary On
Versions: 1 2 3 4 5 6 7 8 9 10 11 12 13 14
000
FTUS43 KFSD 281010 AAA
TAFHON
TAF AMD
KHON 281010Z 2810/2906 34012KT P6SM SCT015 OVC080
      TEMPO 2810/2812 BKN015
     FM281200 36012KT P6SM SCT015 BKN070
     FM281600 35011KT P6SM BKN040
     FM282100 35011KT P6SM SKC=

USA.gov is the U.S. government's official web portal to all federal, state and local government web resources and services.